地図

経路データ

SID SEASON NUMBER BASIN SUBBASIN NAME ISO_TIME NATURE LAT LON WMO_WIND WMO_PRES WMO_AGENCY TRACK_TYPE DIST2LAND LANDFALL IFLAG USA_AGENCY USA_ATCF_ID USA_LAT USA_LON USA_RECORD USA_STATUS USA_WIND USA_PRES USA_SSHS USA_R34_NE USA_R34_SE USA_R34_SW USA_R34_NW USA_R50_NE USA_R50_SE USA_R50_SW USA_R50_NW USA_R64_NE USA_R64_SE USA_R64_SW USA_R64_NW USA_POCI USA_ROCI USA_RMW USA_EYE TOKYO_LAT TOKYO_LON TOKYO_GRADE TOKYO_WIND TOKYO_PRES TOKYO_R50_DIR TOKYO_R50_LONG TOKYO_R50_SHORT TOKYO_R30_DIR TOKYO_R30_LONG TOKYO_R30_SHORT TOKYO_LAND CMA_LAT CMA_LON CMA_CAT CMA_WIND CMA_PRES HKO_LAT HKO_LON HKO_CAT HKO_WIND HKO_PRES NEWDELHI_LAT NEWDELHI_LON NEWDELHI_GRADE NEWDELHI_WIND NEWDELHI_PRES NEWDELHI_CI NEWDELHI_DP NEWDELHI_POCI REUNION_LAT REUNION_LON REUNION_TYPE REUNION_WIND REUNION_PRES REUNION_TNUM REUNION_CI REUNION_RMW REUNION_R34_NE REUNION_R34_SE REUNION_R34_SW REUNION_R34_NW REUNION_R50_NE REUNION_R50_SE REUNION_R50_SW REUNION_R50_NW REUNION_R64_NE REUNION_R64_SE REUNION_R64_SW REUNION_R64_NW BOM_LAT BOM_LON BOM_TYPE BOM_WIND BOM_PRES BOM_TNUM BOM_CI BOM_RMW BOM_R34_NE BOM_R34_SE BOM_R34_SW BOM_R34_NW BOM_R50_NE BOM_R50_SE BOM_R50_SW BOM_R50_NW BOM_R64_NE BOM_R64_SE BOM_R64_SW BOM_R64_NW BOM_ROCI BOM_POCI BOM_EYE BOM_POS_METHOD BOM_PRES_METHOD NADI_LAT NADI_LON NADI_CAT NADI_WIND NADI_PRES WELLINGTON_LAT WELLINGTON_LON WELLINGTON_WIND WELLINGTON_PRES DS824_LAT DS824_LON DS824_STAGE DS824_WIND DS824_PRES TD9636_LAT TD9636_LON TD9636_STAGE TD9636_WIND TD9636_PRES TD9635_LAT TD9635_LON TD9635_WIND TD9635_PRES TD9635_ROCI NEUMANN_LAT NEUMANN_LON NEUMANN_CLASS NEUMANN_WIND NEUMANN_PRES MLC_LAT MLC_LON MLC_CLASS MLC_WIND MLC_PRES USA_GUST BOM_GUST BOM_GUST_PER REUNION_GUST REUNION_GUST_PER USA_SEAHGT USA_SEARAD_NE USA_SEARAD_SE USA_SEARAD_SW USA_SEARAD_NW STORM_SPEED STORM_DIR
1985259N24289 1985 87 NA NA FABIAN 1985-09-15 18:00:00 TS 23.6000 -70.8000 25 1008 hurdat_atl main 350 350 O_____________ hurdat_atl AL081985 23.6000 -70.8000 TD 25 1008 -1 8 60
1985259N24289 1985 87 NA NA FABIAN 1985-09-15 21:00:00 TS 23.7929 -70.4329 main 394 394 P_____________ AL081985 23.7929 -70.4329 TD 25 1008 -1 8 58
1985259N24289 1985 87 NA NA FABIAN 1985-09-16 00:00:00 TS 24.0000 -70.1000 25 1008 hurdat_atl main 431 431 O_____________ hurdat_atl AL081985 24.0000 -70.1000 TD 25 1008 -1 7 53
1985259N24289 1985 87 NA NA FABIAN 1985-09-16 03:00:00 TS 24.2344 -69.8020 main 469 469 P_____________ AL081985 24.2344 -69.8020 TD 27 1007 -1 8 52
1985259N24289 1985 87 NA NA FABIAN 1985-09-16 06:00:00 TS 24.5000 -69.4000 30 1006 hurdat_atl main 521 521 O_____________ hurdat_atl AL081985 24.5000 -69.4000 TD 30 1006 -1 11 61
1985259N24289 1985 87 NA NA FABIAN 1985-09-16 09:00:00 TS 24.7702 -68.7596 main 588 588 P_____________ AL081985 24.7702 -68.7596 TD 30 1005 -1 14 65
1985259N24289 1985 87 NA NA FABIAN 1985-09-16 12:00:00 TS 25.1000 -68.0000 30 1005 hurdat_atl main 648 648 O_____________ hurdat_atl AL081985 25.1000 -68.0000 TD 30 1005 -1 16 60
1985259N24289 1985 87 NA NA FABIAN 1985-09-16 15:00:00 TS 25.5420 -67.2725 main 715 715 P_____________ AL081985 25.5420 -67.2725 TD 35 1004 0 16 56
1985259N24289 1985 87 NA NA FABIAN 1985-09-16 18:00:00 TS 26.0000 -66.5000 40 1003 hurdat_atl main 800 800 O_____________ hurdat_atl AL081985 26.0000 -66.5000 TS 40 1003 0 17 60
1985259N24289 1985 87 NA NA FABIAN 1985-09-16 21:00:00 TS 26.3722 -65.6645 main 874 874 P_____________ AL081985 26.3722 -65.6645 TS 42 1002 0 17 65
1985259N24289 1985 87 NA NA FABIAN 1985-09-17 00:00:00 TS 26.7000 -64.8000 45 1001 hurdat_atl main 931 931 O_____________ hurdat_atl AL081985 26.7000 -64.8000 TS 45 1001 0 16 68
1985259N24289 1985 87 NA NA FABIAN 1985-09-17 03:00:00 TS 26.9917 -63.9639 main 975 975 P_____________ AL081985 26.9917 -63.9639 TS 47 998 0 16 68
1985259N24289 1985 87 NA NA FABIAN 1985-09-17 06:00:00 TS 27.3000 -63.1000 50 996 hurdat_atl main 1027 1027 O_____________ hurdat_atl AL081985 27.3000 -63.1000 TS 50 996 0 18 67
1985259N24289 1985 87 NA NA FABIAN 1985-09-17 09:00:00 TS 27.6854 -62.1278 main 1099 1099 P_____________ AL081985 27.6854 -62.1278 TS 52 995 0 19 65
1985259N24289 1985 87 NA NA FABIAN 1985-09-17 12:00:00 TS 28.1000 -61.2000 55 994 hurdat_atl main 1173 1173 O_____________ hurdat_atl AL081985 28.1000 -61.2000 TS 55 994 0 17 61
1985259N24289 1985 87 NA NA FABIAN 1985-09-17 15:00:00 TS 28.4985 -60.4912 main 1242 1242 P_____________ AL081985 28.4985 -60.4912 TS 55 994 0 15 57
1985259N24289 1985 87 NA NA FABIAN 1985-09-17 18:00:00 TS 28.9000 -59.8000 55 994 hurdat_atl main 1313 1313 O_____________ hurdat_atl AL081985 28.9000 -59.8000 TS 55 994 0 16 59
1985259N24289 1985 87 NA NA FABIAN 1985-09-17 21:00:00 TS 29.3223 -58.9377 main 1394 1394 P_____________ AL081985 29.3223 -58.9377 TS 55 994 0 18 63
1985259N24289 1985 87 NA NA FABIAN 1985-09-18 00:00:00 TS 29.7000 -58.0000 55 994 hurdat_atl main 1478 1478 O_____________ hurdat_atl AL081985 29.7000 -58.0000 TS 55 994 0 18 69
1985259N24289 1985 87 NA NA FABIAN 1985-09-18 03:00:00 TS 29.9648 -57.0414 main 1560 1560 P_____________ AL081985 29.9648 -57.0414 TS 55 994 0 17 73
1985259N24289 1985 87 NA NA FABIAN 1985-09-18 06:00:00 TS 30.2000 -56.1000 55 994 hurdat_atl main 1630 1630 O_____________ hurdat_atl AL081985 30.2000 -56.1000 TS 55 994 0 16 70
1985259N24289 1985 87 NA NA FABIAN 1985-09-18 09:00:00 TS 30.5137 -55.2575 main 1694 1693 P_____________ AL081985 30.5137 -55.2575 TS 55 994 0 16 68
1985259N24289 1985 87 NA NA FABIAN 1985-09-18 12:00:00 TS 30.8000 -54.4000 55 994 hurdat_atl main 1705 1703 O_____________ hurdat_atl AL081985 30.8000 -54.4000 TS 55 994 0 16 74
1985259N24289 1985 87 NA NA FABIAN 1985-09-18 15:00:00 TS 30.9647 -53.4214 main 1716 1716 P_____________ AL081985 30.9647 -53.4214 TS 55 994 0 17 80
1985259N24289 1985 87 NA NA FABIAN 1985-09-18 18:00:00 TS 31.1000 -52.4000 55 994 hurdat_atl main 1726 1708 O_____________ hurdat_atl AL081985 31.1000 -52.4000 TS 55 994 0 17 79
1985259N24289 1985 87 NA NA FABIAN 1985-09-18 21:00:00 TS 31.2962 -51.5043 main 1709 1694 P_____________ AL081985 31.2962 -51.5043 TS 55 994 0 18 77
1985259N24289 1985 87 NA NA FABIAN 1985-09-19 00:00:00 TS 31.5000 -50.4000 55 994 hurdat_atl main 1697 1693 O_____________ hurdat_atl AL081985 31.5000 -50.4000 TS 55 994 0 23 81
1985259N24289 1985 87 NA NA FABIAN 1985-09-19 03:00:00 TS 31.6551 -48.8861 main 1698 1698 P_____________ AL081985 31.6551 -48.8861 TS 55 994 0 29 84
1985259N24289 1985 87 NA NA FABIAN 1985-09-19 06:00:00 TS 31.8000 -47.0000 55 994 hurdat_atl main 1730 1730 O_____________ hurdat_atl AL081985 31.8000 -47.0000 TS 55 994 0 35 85
1985259N24289 1985 87 NA NA FABIAN 1985-09-19 09:00:00 TS 31.9567 -44.8274 main 1775 1775 P_____________ AL081985 31.9567 -44.8274 TS 55 994 0 38 86
1985259N24289 1985 87 NA NA FABIAN 1985-09-19 12:00:00 TS 32.1000 -42.5000 55 994 hurdat_atl main 1852 O_____________ hurdat_atl AL081985 32.1000 -42.5000 TS 55 994 0 40 86

IBTrACS Databaseについて

本データベースは、米国NOAAが公開する1842年以降の世界の熱帯低気圧のベストトラックデータアーカイブInternational Best Track Archive for Climate Stewardship (IBTrACS)を、ウェブで閲覧しやすい形式に変換したものです。

最終更新日:2021-10-08